sensor_id;sensor_type;location;lat;lon;timestamp;pressure;altitude;pressure_sealevel;temperature;humidity
49709;BME280;35601;55.902;13.606;2023-01-05T00:01:00;98818.47;;;5.12;91.62
49709;BME280;35601;55.902;13.606;2023-01-05T00:03:24;98821.16;;;5.11;91.55
49709;BME280;35601;55.902;13.606;2023-01-05T00:05:50;98818.15;;;5.19;91.00
49709;BME280;35601;55.902;13.606;2023-01-05T00:08:15;98821.55;;;5.13;91.11
49709;BME280;35601;55.902;13.606;2023-01-05T00:10:41;98820.30;;;4.94;90.55
49709;BME280;35601;55.902;13.606;2023-01-05T00:13:07;98822.21;;;4.94;90.34
49709;BME280;35601;55.902;13.606;2023-01-05T00:15:31;98820.86;;;5.14;90.18
49709;BME280;35601;55.902;13.606;2023-01-05T00:17:56;98816.84;;;4.60;90.02
49709;BME280;35601;55.902;13.606;2023-01-05T00:20:22;98816.12;;;5.24;89.56
49709;BME280;35601;55.902;13.606;2023-01-05T00:22:49;98815.28;;;5.27;89.38
49709;BME280;35601;55.902;13.606;2023-01-05T00:25:14;98816.71;;;5.13;89.81
49709;BME280;35601;55.902;13.606;2023-01-05T00:27:39;98816.15;;;5.03;89.28
49709;BME280;35601;55.902;13.606;2023-01-05T00:30:04;98816.98;;;5.24;89.18
49709;BME280;35601;55.902;13.606;2023-01-05T00:32:29;98817.88;;;5.23;89.14
49709;BME280;35601;55.902;13.606;2023-01-05T00:34:54;98821.19;;;4.85;89.21
49709;BME280;35601;55.902;13.606;2023-01-05T00:37:19;98820.86;;;5.06;89.12
49709;BME280;35601;55.902;13.606;2023-01-05T00:39:44;98817.51;;;4.85;88.72
49709;BME280;35601;55.902;13.606;2023-01-05T00:42:09;98820.89;;;5.02;88.67
49709;BME280;35601;55.902;13.606;2023-01-05T00:44:35;98820.90;;;5.00;88.42
49709;BME280;35601;55.902;13.606;2023-01-05T00:47:00;98821.01;;;4.96;88.48
49709;BME280;35601;55.902;13.606;2023-01-05T00:49:25;98823.92;;;4.97;88.32
49709;BME280;35601;55.902;13.606;2023-01-05T00:51:50;98827.78;;;4.75;88.12
49709;BME280;35601;55.902;13.606;2023-01-05T00:54:16;98830.54;;;4.64;88.09
49709;BME280;35601;55.902;13.606;2023-01-05T00:56:41;98832.02;;;4.87;87.92
49709;BME280;35601;55.902;13.606;2023-01-05T00:59:06;98829.69;;;4.73;87.79
49709;BME280;35601;55.902;13.606;2023-01-05T01:01:32;98831.27;;;4.84;87.52
49709;BME280;35601;55.902;13.606;2023-01-05T01:03:57;98826.28;;;4.88;87.23
49709;BME280;35601;55.902;13.606;2023-01-05T01:06:22;98826.18;;;4.73;87.14
49709;BME280;35601;55.902;13.606;2023-01-05T01:08:47;98821.27;;;4.64;87.19
49709;BME280;35601;55.902;13.606;2023-01-05T01:11:13;98822.05;;;4.47;87.23
49709;BME280;35601;55.902;13.606;2023-01-05T01:13:38;98824.47;;;4.53;86.81
49709;BME280;35601;55.902;13.606;2023-01-05T01:16:06;98819.71;;;4.43;87.06
49709;BME280;35601;55.902;13.606;2023-01-05T01:18:30;98821.38;;;4.48;86.75
49709;BME280;35601;55.902;13.606;2023-01-05T01:20:55;98820.70;;;4.52;86.16
49709;BME280;35601;55.902;13.606;2023-01-05T01:23:19;98817.13;;;4.59;86.13
49709;BME280;35601;55.902;13.606;2023-01-05T01:25:44;98819.11;;;4.69;85.93
49709;BME280;35601;55.902;13.606;2023-01-05T01:28:10;98814.46;;;4.63;85.59
49709;BME280;35601;55.902;13.606;2023-01-05T01:30:37;98817.79;;;4.58;85.71
49709;BME280;35601;55.902;13.606;2023-01-05T01:33:00;98813.13;;;4.52;85.97
49709;BME280;35601;55.902;13.606;2023-01-05T01:35:25;98813.57;;;4.42;86.56
49709;BME280;35601;55.902;13.606;2023-01-05T01:37:51;98812.13;;;4.47;86.65
49709;BME280;35601;55.902;13.606;2023-01-05T01:40:17;98805.00;;;4.52;86.58
49709;BME280;35601;55.902;13.606;2023-01-05T01:42:42;98803.78;;;4.57;86.41
49709;BME280;35601;55.902;13.606;2023-01-05T01:45:17;98803.48;;;4.66;87.05
49709;BME280;35601;55.902;13.606;2023-01-05T01:47:37;98807.09;;;4.50;86.80
49709;BME280;35601;55.902;13.606;2023-01-05T01:50:00;98810.71;;;4.42;86.88
49709;BME280;35601;55.902;13.606;2023-01-05T01:52:23;98803.90;;;4.17;87.72
49709;BME280;35601;55.902;13.606;2023-01-05T01:54:49;98796.87;;;4.09;88.09
49709;BME280;35601;55.902;13.606;2023-01-05T01:57:14;98799.40;;;4.25;88.26
49709;BME280;35601;55.902;13.606;2023-01-05T01:59:39;98797.91;;;4.02;88.69
49709;BME280;35601;55.902;13.606;2023-01-05T02:02:04;98793.83;;;4.15;88.99
49709;BME280;35601;55.902;13.606;2023-01-05T02:04:30;98790.35;;;4.21;88.93
49709;BME280;35601;55.902;13.606;2023-01-05T02:06:54;98790.22;;;3.98;88.95
49709;BME280;35601;55.902;13.606;2023-01-05T02:09:19;98796.11;;;4.30;89.42
49709;BME280;35601;55.902;13.606;2023-01-05T02:11:52;98793.58;;;3.82;89.54
49709;BME280;35601;55.902;13.606;2023-01-05T02:14:17;98789.67;;;4.15;89.29
49709;BME280;35601;55.902;13.606;2023-01-05T02:16:44;98788.07;;;3.91;89.20
49709;BME280;35601;55.902;13.606;2023-01-05T02:19:15;98793.16;;;4.43;89.19
49709;BME280;35601;55.902;13.606;2023-01-05T02:21:35;98800.71;;;3.89;89.58
49709;BME280;35601;55.902;13.606;2023-01-05T02:26:32;98797.13;;;4.03;90.05
49709;BME280;35601;55.902;13.606;2023-01-05T02:28:53;98797.39;;;4.20;90.18
49709;BME280;35601;55.902;13.606;2023-01-05T02:31:12;98801.77;;;4.12;90.47
49709;BME280;35601;55.902;13.606;2023-01-05T02:33:41;98800.71;;;4.09;90.37
49709;BME280;35601;55.902;13.606;2023-01-05T02:36:01;98801.28;;;4.07;90.38
49709;BME280;35601;55.902;13.606;2023-01-05T02:38:30;98797.99;;;3.88;90.14
49709;BME280;35601;55.902;13.606;2023-01-05T02:40:52;98790.56;;;3.87;89.82
49709;BME280;35601;55.902;13.606;2023-01-05T02:43:16;98788.42;;;3.83;89.38
49709;BME280;35601;55.902;13.606;2023-01-05T02:45:39;98784.47;;;3.82;89.26
49709;BME280;35601;55.902;13.606;2023-01-05T02:48:04;98790.28;;;4.05;89.06
49709;BME280;35601;55.902;13.606;2023-01-05T02:50:33;98779.65;;;3.87;90.09
49709;BME280;35601;55.902;13.606;2023-01-05T02:52:57;98776.45;;;4.10;89.68
49709;BME280;35601;55.902;13.606;2023-01-05T02:55:23;98780.34;;;3.84;90.10
49709;BME280;35601;55.902;13.606;2023-01-05T02:57:48;98784.55;;;4.03;90.57
49709;BME280;35601;55.902;13.606;2023-01-05T03:00:12;98784.71;;;3.60;91.06
49709;BME280;35601;55.902;13.606;2023-01-05T03:02:38;98783.34;;;3.76;91.10
49709;BME280;35601;55.902;13.606;2023-01-05T03:05:06;98790.78;;;3.46;92.33
49709;BME280;35601;55.902;13.606;2023-01-05T03:07:30;98798.48;;;3.78;91.94
49709;BME280;35601;55.902;13.606;2023-01-05T03:09:52;98798.72;;;3.49;91.74
49709;BME280;35601;55.902;13.606;2023-01-05T03:12:20;98800.93;;;3.46;91.85
49709;BME280;35601;55.902;13.606;2023-01-05T03:14:46;98796.75;;;3.62;92.10
49709;BME280;35601;55.902;13.606;2023-01-05T03:17:11;98792.25;;;3.42;91.82
49709;BME280;35601;55.902;13.606;2023-01-05T03:19:33;98802.57;;;3.53;92.11
49709;BME280;35601;55.902;13.606;2023-01-05T03:22:02;98798.21;;;3.63;91.36
49709;BME280;35601;55.902;13.606;2023-01-05T03:24:24;98803.87;;;3.34;90.65
49709;BME280;35601;55.902;13.606;2023-01-05T03:26:49;98803.35;;;3.50;89.85
49709;BME280;35601;55.902;13.606;2023-01-05T03:29:14;98804.80;;;3.58;89.81
49709;BME280;35601;55.902;13.606;2023-01-05T03:31:43;98800.38;;;3.43;89.33
49709;BME280;35601;55.902;13.606;2023-01-05T03:34:09;98800.03;;;3.63;88.69
49709;BME280;35601;55.902;13.606;2023-01-05T03:36:32;98813.84;;;3.43;88.68
49709;BME280;35601;55.902;13.606;2023-01-05T03:38:57;98804.00;;;3.59;88.43
49709;BME280;35601;55.902;13.606;2023-01-05T03:41:21;98812.73;;;3.30;88.10
49709;BME280;35601;55.902;13.606;2023-01-05T03:43:46;98817.95;;;2.93;88.44
49709;BME280;35601;55.902;13.606;2023-01-05T03:46:13;98821.30;;;3.54;88.19
49709;BME280;35601;55.902;13.606;2023-01-05T03:48:37;98822.55;;;3.28;88.05
49709;BME280;35601;55.902;13.606;2023-01-05T03:51:02;98831.85;;;3.36;86.33
49709;BME280;35601;55.902;13.606;2023-01-05T03:53:27;98828.77;;;2.77;83.46
49709;BME280;35601;55.902;13.606;2023-01-05T03:55:52;98834.71;;;3.00;84.01
49709;BME280;35601;55.902;13.606;2023-01-05T03:58:18;98835.02;;;3.00;83.52
49709;BME280;35601;55.902;13.606;2023-01-05T04:00:43;98841.83;;;2.55;82.05
49709;BME280;35601;55.902;13.606;2023-01-05T04:03:08;98847.37;;;2.56;82.02
49709;BME280;35601;55.902;13.606;2023-01-05T04:05:33;98851.17;;;2.54;81.68
49709;BME280;35601;55.902;13.606;2023-01-05T04:07:59;98863.20;;;2.47;82.57
49709;BME280;35601;55.902;13.606;2023-01-05T04:10:24;98868.95;;;2.42;82.44
49709;BME280;35601;55.902;13.606;2023-01-05T04:12:49;98874.30;;;2.37;81.69
49709;BME280;35601;55.902;13.606;2023-01-05T04:15:15;98873.50;;;2.18;81.84
49709;BME280;35601;55.902;13.606;2023-01-05T04:17:40;98877.73;;;2.36;81.42
49709;BME280;35601;55.902;13.606;2023-01-05T04:20:06;98879.28;;;2.38;82.11
49709;BME280;35601;55.902;13.606;2023-01-05T04:22:30;98885.30;;;2.43;82.40
49709;BME280;35601;55.902;13.606;2023-01-05T04:24:56;98884.34;;;2.49;82.62
49709;BME280;35601;55.902;13.606;2023-01-05T04:27:21;98889.90;;;1.69;84.44
49709;BME280;35601;55.902;13.606;2023-01-05T04:29:46;98892.40;;;1.77;85.00
49709;BME280;35601;55.902;13.606;2023-01-05T04:32:11;98895.18;;;1.93;84.88
49709;BME280;35601;55.902;13.606;2023-01-05T04:34:37;98896.65;;;1.99;84.97
49709;BME280;35601;55.902;13.606;2023-01-05T04:37:02;98902.20;;;2.03;85.09
49709;BME280;35601;55.902;13.606;2023-01-05T04:39:27;98900.27;;;2.18;85.18
49709;BME280;35601;55.902;13.606;2023-01-05T04:41:53;98901.33;;;1.93;85.67
49709;BME280;35601;55.902;13.606;2023-01-05T04:44:18;98909.27;;;1.83;85.60
49709;BME280;35601;55.902;13.606;2023-01-05T04:46:43;98912.11;;;2.14;85.24
49709;BME280;35601;55.902;13.606;2023-01-05T04:49:09;98922.63;;;1.67;85.32
49709;BME280;35601;55.902;13.606;2023-01-05T04:51:34;98920.47;;;1.60;86.01
49709;BME280;35601;55.902;13.606;2023-01-05T04:53:59;98924.00;;;1.34;86.03
49709;BME280;35601;55.902;13.606;2023-01-05T04:56:24;98926.59;;;1.52;86.04
49709;BME280;35601;55.902;13.606;2023-01-05T04:58:50;98931.71;;;1.21;86.22
49709;BME280;35601;55.902;13.606;2023-01-05T05:01:15;98925.94;;;0.99;86.87
49709;BME280;35601;55.902;13.606;2023-01-05T05:03:40;98933.58;;;1.33;87.30
49709;BME280;35601;55.902;13.606;2023-01-05T05:06:06;98936.83;;;1.30;87.04
49709;BME280;35601;55.902;13.606;2023-01-05T05:08:31;98936.05;;;1.02;86.66
49709;BME280;35601;55.902;13.606;2023-01-05T05:10:56;98939.00;;;1.02;87.00
49709;BME280;35601;55.902;13.606;2023-01-05T05:13:21;98937.58;;;0.98;87.03
49709;BME280;35601;55.902;13.606;2023-01-05T05:15:47;98936.00;;;1.38;86.77
49709;BME280;35601;55.902;13.606;2023-01-05T05:18:12;98937.18;;;1.29;86.61
49709;BME280;35601;55.902;13.606;2023-01-05T05:20:40;98934.57;;;1.08;86.39
49709;BME280;35601;55.902;13.606;2023-01-05T05:23:02;98939.93;;;1.18;86.77
49709;BME280;35601;55.902;13.606;2023-01-05T05:25:28;98934.48;;;1.24;86.61
49709;BME280;35601;55.902;13.606;2023-01-05T05:27:53;98941.15;;;0.97;87.36
49709;BME280;35601;55.902;13.606;2023-01-05T05:30:19;98948.70;;;0.93;88.21
49709;BME280;35601;55.902;13.606;2023-01-05T05:32:44;98950.50;;;1.21;87.81
49709;BME280;35601;55.902;13.606;2023-01-05T05:35:09;98957.97;;;1.00;87.22
49709;BME280;35601;55.902;13.606;2023-01-05T05:37:35;98958.26;;;1.39;87.20
49709;BME280;35601;55.902;13.606;2023-01-05T05:40:00;98964.61;;;0.93;87.15
49709;BME280;35601;55.902;13.606;2023-01-05T05:42:25;98965.88;;;0.85;86.95
49709;BME280;35601;55.902;13.606;2023-01-05T05:44:50;98969.63;;;1.05;86.69
49709;BME280;35601;55.902;13.606;2023-01-05T05:47:16;98968.23;;;1.11;87.48
49709;BME280;35601;55.902;13.606;2023-01-05T05:49:41;98970.90;;;1.01;87.07
49709;BME280;35601;55.902;13.606;2023-01-05T05:52:06;98971.10;;;1.09;86.86
49709;BME280;35601;55.902;13.606;2023-01-05T05:54:32;98971.35;;;0.97;86.93
49709;BME280;35601;55.902;13.606;2023-01-05T05:56:57;98982.86;;;1.05;87.18
49709;BME280;35601;55.902;13.606;2023-01-05T05:59:22;98984.59;;;1.03;87.29
49709;BME280;35601;55.902;13.606;2023-01-05T06:01:48;98984.15;;;0.73;87.12
49709;BME280;35601;55.902;13.606;2023-01-05T06:04:13;98982.92;;;1.04;86.87
49709;BME280;35601;55.902;13.606;2023-01-05T06:06:38;98984.04;;;1.12;86.77
49709;BME280;35601;55.902;13.606;2023-01-05T06:09:04;98985.48;;;0.95;87.03
49709;BME280;35601;55.902;13.606;2023-01-05T06:11:29;98990.27;;;0.79;87.85
49709;BME280;35601;55.902;13.606;2023-01-05T06:13:54;98992.63;;;0.85;87.42
49709;BME280;35601;55.902;13.606;2023-01-05T06:16:19;98998.20;;;0.67;87.75
49709;BME280;35601;55.902;13.606;2023-01-05T06:18:45;99006.50;;;1.06;87.98
49709;BME280;35601;55.902;13.606;2023-01-05T06:21:10;99007.72;;;0.69;88.55
49709;BME280;35601;55.902;13.606;2023-01-05T06:23:35;99013.77;;;0.94;88.92
49709;BME280;35601;55.902;13.606;2023-01-05T06:26:01;99020.06;;;0.99;88.78
49709;BME280;35601;55.902;13.606;2023-01-05T06:28:26;99029.39;;;0.57;89.26
49709;BME280;35601;55.902;13.606;2023-01-05T06:30:51;99034.09;;;0.69;89.00
49709;BME280;35601;55.902;13.606;2023-01-05T06:33:16;99033.36;;;0.79;88.93
49709;BME280;35601;55.902;13.606;2023-01-05T06:35:42;99045.73;;;0.91;89.00
49709;BME280;35601;55.902;13.606;2023-01-05T06:38:07;99053.17;;;0.63;89.39
49709;BME280;35601;55.902;13.606;2023-01-05T06:40:32;99058.63;;;0.83;88.93
49709;BME280;35601;55.902;13.606;2023-01-05T06:42:58;99066.42;;;0.96;89.11
49709;BME280;35601;55.902;13.606;2023-01-05T06:45:23;99070.78;;;0.56;89.28
49709;BME280;35601;55.902;13.606;2023-01-05T06:47:48;99072.67;;;0.69;88.97
49709;BME280;35601;55.902;13.606;2023-01-05T06:50:14;99082.18;;;1.01;88.60
49709;BME280;35601;55.902;13.606;2023-01-05T06:52:39;99085.15;;;0.94;88.94
49709;BME280;35601;55.902;13.606;2023-01-05T06:55:05;99088.96;;;1.05;88.79
49709;BME280;35601;55.902;13.606;2023-01-05T06:57:29;99095.33;;;0.99;89.24
49709;BME280;35601;55.902;13.606;2023-01-05T06:59:55;99098.38;;;0.86;88.91
49709;BME280;35601;55.902;13.606;2023-01-05T07:02:20;99105.30;;;0.76;89.22
49709;BME280;35601;55.902;13.606;2023-01-05T07:04:45;99111.73;;;1.14;88.95
49709;BME280;35601;55.902;13.606;2023-01-05T07:07:11;99117.27;;;0.96;88.74
49709;BME280;35601;55.902;13.606;2023-01-05T07:09:36;99122.51;;;0.93;89.74
49709;BME280;35601;55.902;13.606;2023-01-05T07:12:02;99125.98;;;0.81;89.71
49709;BME280;35601;55.902;13.606;2023-01-05T07:14:27;99129.02;;;0.94;89.70
49709;BME280;35601;55.902;13.606;2023-01-05T07:16:52;99135.83;;;1.23;90.29
49709;BME280;35601;55.902;13.606;2023-01-05T07:19:17;99140.61;;;1.02;90.63
49709;BME280;35601;55.902;13.606;2023-01-05T07:21:42;99151.23;;;0.93;90.21
49709;BME280;35601;55.902;13.606;2023-01-05T07:24:08;99158.48;;;1.41;90.21
49709;BME280;35601;55.902;13.606;2023-01-05T07:26:33;99167.79;;;1.03;89.98
49709;BME280;35601;55.902;13.606;2023-01-05T07:28:58;99176.06;;;1.09;89.84
49709;BME280;35601;55.902;13.606;2023-01-05T07:31:24;99180.14;;;1.26;89.76
49709;BME280;35601;55.902;13.606;2023-01-05T07:33:49;99184.80;;;1.32;89.48
49709;BME280;35601;55.902;13.606;2023-01-05T07:36:14;99188.86;;;1.22;89.81
49709;BME280;35601;55.902;13.606;2023-01-05T07:38:40;99196.34;;;1.46;89.24
49709;BME280;35601;55.902;13.606;2023-01-05T07:41:05;99200.81;;;0.90;89.17
49709;BME280;35601;55.902;13.606;2023-01-05T07:43:30;99208.41;;;1.23;90.01
49709;BME280;35601;55.902;13.606;2023-01-05T07:45:57;99214.09;;;1.35;89.85
49709;BME280;35601;55.902;13.606;2023-01-05T07:48:21;99222.01;;;1.37;89.72
49709;BME280;35601;55.902;13.606;2023-01-05T07:50:46;99231.58;;;1.37;90.01
49709;BME280;35601;55.902;13.606;2023-01-05T07:53:12;99238.53;;;1.39;90.03
49709;BME280;35601;55.902;13.606;2023-01-05T07:55:37;99246.95;;;1.32;90.50
49709;BME280;35601;55.902;13.606;2023-01-05T07:58:02;99252.50;;;1.34;90.77
49709;BME280;35601;55.902;13.606;2023-01-05T08:00:28;99263.46;;;1.40;91.03
49709;BME280;35601;55.902;13.606;2023-01-05T08:02:53;99271.55;;;1.30;91.76
49709;BME280;35601;55.902;13.606;2023-01-05T08:05:19;99281.58;;;1.34;92.05
49709;BME280;35601;55.902;13.606;2023-01-05T08:07:44;99290.91;;;1.35;92.16
49709;BME280;35601;55.902;13.606;2023-01-05T08:10:09;99303.58;;;1.45;91.96
49709;BME280;35601;55.902;13.606;2023-01-05T08:12:35;99309.84;;;1.71;91.67
49709;BME280;35601;55.902;13.606;2023-01-05T08:15:00;99317.79;;;1.65;91.58
49709;BME280;35601;55.902;13.606;2023-01-05T08:17:25;99322.92;;;1.31;91.37
49709;BME280;35601;55.902;13.606;2023-01-05T08:19:51;99332.83;;;1.18;91.45
49709;BME280;35601;55.902;13.606;2023-01-05T08:22:16;99346.98;;;1.08;91.00
49709;BME280;35601;55.902;13.606;2023-01-05T08:24:41;99359.26;;;1.16;90.38
49709;BME280;35601;55.902;13.606;2023-01-05T08:27:06;99372.11;;;1.09;90.34
49709;BME280;35601;55.902;13.606;2023-01-05T08:29:32;99382.93;;;1.32;89.93
49709;BME280;35601;55.902;13.606;2023-01-05T08:31:57;99398.51;;;1.21;89.99
49709;BME280;35601;55.902;13.606;2023-01-05T08:34:22;99412.07;;;1.06;89.45
49709;BME280;35601;55.902;13.606;2023-01-05T08:36:47;99423.21;;;1.23;89.08
49709;BME280;35601;55.902;13.606;2023-01-05T08:39:13;99428.43;;;1.41;89.18
49709;BME280;35601;55.902;13.606;2023-01-05T08:41:39;99439.77;;;1.13;89.18
49709;BME280;35601;55.902;13.606;2023-01-05T08:44:06;99452.69;;;1.32;89.64
49709;BME280;35601;55.902;13.606;2023-01-05T08:46:30;99461.91;;;1.30;89.06
49709;BME280;35601;55.902;13.606;2023-01-05T08:48:57;99470.12;;;1.57;88.84
49709;BME280;35601;55.902;13.606;2023-01-05T08:51:19;99474.58;;;1.29;88.67
49709;BME280;35601;55.902;13.606;2023-01-05T08:53:45;99478.26;;;1.43;88.23
49709;BME280;35601;55.902;13.606;2023-01-05T08:56:10;99487.88;;;1.64;88.25
49709;BME280;35601;55.902;13.606;2023-01-05T08:58:35;99491.62;;;1.51;87.85
49709;BME280;35601;55.902;13.606;2023-01-05T09:01:05;99506.01;;;1.74;87.56
49709;BME280;35601;55.902;13.606;2023-01-05T09:03:26;99519.67;;;1.80;87.70
49709;BME280;35601;55.902;13.606;2023-01-05T09:05:52;99534.26;;;1.79;87.79
49709;BME280;35601;55.902;13.606;2023-01-05T09:08:16;99553.71;;;1.73;87.58
49709;BME280;35601;55.902;13.606;2023-01-05T09:10:42;99563.02;;;1.72;87.81
49709;BME280;35601;55.902;13.606;2023-01-05T09:13:07;99573.37;;;1.59;88.42
49709;BME280;35601;55.902;13.606;2023-01-05T09:15:34;99587.25;;;1.14;88.93
49709;BME280;35601;55.902;13.606;2023-01-05T09:17:57;99592.04;;;1.48;87.79
49709;BME280;35601;55.902;13.606;2023-01-05T09:20:23;99600.94;;;1.36;86.35
49709;BME280;35601;55.902;13.606;2023-01-05T09:22:48;99610.98;;;1.33;85.83
49709;BME280;35601;55.902;13.606;2023-01-05T09:25:14;99612.70;;;1.11;85.91
49709;BME280;35601;55.902;13.606;2023-01-05T09:27:39;99616.28;;;0.98;86.08
49709;BME280;35601;55.902;13.606;2023-01-05T09:30:05;99627.55;;;0.89;86.79
49709;BME280;35601;55.902;13.606;2023-01-05T09:32:29;99637.56;;;0.67;86.73
49709;BME280;35601;55.902;13.606;2023-01-05T09:34:55;99649.56;;;0.61;87.56
49709;BME280;35601;55.902;13.606;2023-01-05T09:37:20;99661.34;;;0.96;87.31
49709;BME280;35601;55.902;13.606;2023-01-05T09:39:46;99677.67;;;0.38;87.32
49709;BME280;35601;55.902;13.606;2023-01-05T09:42:14;99683.30;;;0.73;86.79
49709;BME280;35601;55.902;13.606;2023-01-05T09:44:39;99692.46;;;0.75;86.00
49709;BME280;35601;55.902;13.606;2023-01-05T09:47:10;99701.51;;;0.81;85.91
49709;BME280;35601;55.902;13.606;2023-01-05T09:49:28;99713.22;;;0.92;85.68
49709;BME280;35601;55.902;13.606;2023-01-05T09:51:56;99719.61;;;0.22;85.96
49709;BME280;35601;55.902;13.606;2023-01-05T09:54:18;99722.80;;;0.44;86.27
49709;BME280;35601;55.902;13.606;2023-01-05T09:56:44;99727.47;;;0.39;86.13
49709;BME280;35601;55.902;13.606;2023-01-05T09:59:13;99733.36;;;0.60;86.67
49709;BME280;35601;55.902;13.606;2023-01-05T10:01:35;99742.50;;;0.40;86.82
49709;BME280;35601;55.902;13.606;2023-01-05T10:04:01;99752.43;;;0.45;86.28
49709;BME280;35601;55.902;13.606;2023-01-05T10:06:26;99767.03;;;0.55;85.47
49709;BME280;35601;55.902;13.606;2023-01-05T10:08:50;99776.80;;;0.74;85.67
49709;BME280;35601;55.902;13.606;2023-01-05T10:11:18;99785.24;;;0.31;85.54
49709;BME280;35601;55.902;13.606;2023-01-05T10:13:44;99790.48;;;0.90;84.94
49709;BME280;35601;55.902;13.606;2023-01-05T10:16:07;99802.52;;;0.22;85.54
49709;BME280;35601;55.902;13.606;2023-01-05T10:18:31;99807.70;;;0.33;85.13
49709;BME280;35601;55.902;13.606;2023-01-05T10:21:05;99814.79;;;0.62;84.62
49709;BME280;35601;55.902;13.606;2023-01-05T10:23:32;99821.42;;;0.17;84.85
49709;BME280;35601;55.902;13.606;2023-01-05T10:25:52;99830.24;;;0.20;84.95
49709;BME280;35601;55.902;13.606;2023-01-05T10:28:27;99843.04;;;0.19;85.14
49709;BME280;35601;55.902;13.606;2023-01-05T10:30:45;99855.07;;;0.10;85.38
49709;BME280;35601;55.902;13.606;2023-01-05T10:33:13;99861.37;;;0.43;85.16
49709;BME280;35601;55.902;13.606;2023-01-05T10:35:41;99869.48;;;0.35;85.28
49709;BME280;35601;55.902;13.606;2023-01-05T10:38:01;99876.57;;;0.46;84.82
49709;BME280;35601;55.902;13.606;2023-01-05T10:40:26;99882.64;;;0.45;84.85
49709;BME280;35601;55.902;13.606;2023-01-05T10:42:53;99890.70;;;0.39;84.03
49709;BME280;35601;55.902;13.606;2023-01-05T10:45:11;99898.81;;;0.10;84.71
49709;BME280;35601;55.902;13.606;2023-01-05T10:47:36;99906.23;;;0.27;85.10
49709;BME280;35601;55.902;13.606;2023-01-05T10:50:02;99915.58;;;0.55;84.47
49709;BME280;35601;55.902;13.606;2023-01-05T10:52:26;99919.64;;;0.33;84.70
49709;BME280;35601;55.902;13.606;2023-01-05T10:54:54;99929.83;;;0.82;84.32
49709;BME280;35601;55.902;13.606;2023-01-05T10:57:31;99936.61;;;0.51;84.30
49709;BME280;35601;55.902;13.606;2023-01-05T10:59:52;99940.84;;;0.11;83.78
49709;BME280;35601;55.902;13.606;2023-01-05T11:02:11;99948.94;;;0.48;83.96
49709;BME280;35601;55.902;13.606;2023-01-05T11:04:34;99957.13;;;0.09;84.05
49709;BME280;35601;55.902;13.606;2023-01-05T11:07:02;99964.04;;;0.46;83.33
49709;BME280;35601;55.902;13.606;2023-01-05T11:09:23;99968.54;;;0.36;82.96
49709;BME280;35601;55.902;13.606;2023-01-05T11:11:53;99981.08;;;0.26;83.16
49709;BME280;35601;55.902;13.606;2023-01-05T11:14:15;99987.63;;;0.63;83.33
49709;BME280;35601;55.902;13.606;2023-01-05T11:16:45;99998.09;;;1.00;82.96
49709;BME280;35601;55.902;13.606;2023-01-05T11:19:06;100008.42;;;0.56;82.73
49709;BME280;35601;55.902;13.606;2023-01-05T11:21:39;100017.26;;;0.59;82.10
49709;BME280;35601;55.902;13.606;2023-01-05T11:23:56;100024.17;;;0.73;82.62
49709;BME280;35601;55.902;13.606;2023-01-05T11:26:24;100031.51;;;0.45;82.58
49709;BME280;35601;55.902;13.606;2023-01-05T11:28:56;100041.13;;;0.44;82.62
49709;BME280;35601;55.902;13.606;2023-01-05T11:31:11;100053.24;;;0.35;83.37
49709;BME280;35601;55.902;13.606;2023-01-05T11:33:36;100061.71;;;0.54;82.93
49709;BME280;35601;55.902;13.606;2023-01-05T11:36:03;100075.24;;;0.49;82.82
49709;BME280;35601;55.902;13.606;2023-01-05T11:38:28;100084.58;;;0.65;82.69
49709;BME280;35601;55.902;13.606;2023-01-05T11:40:53;100095.34;;;0.26;83.34
49709;BME280;35601;55.902;13.606;2023-01-05T11:43:19;100100.89;;;0.38;83.57
49709;BME280;35601;55.902;13.606;2023-01-05T11:45:47;100112.00;;;0.46;83.85
49709;BME280;35601;55.902;13.606;2023-01-05T11:48:18;100116.21;;;0.10;83.11
49709;BME280;35601;55.902;13.606;2023-01-05T11:50:44;100123.52;;;0.41;83.13
49709;BME280;35601;55.902;13.606;2023-01-05T11:53:00;100125.63;;;0.39;83.11
49709;BME280;35601;55.902;13.606;2023-01-05T11:55:28;100121.76;;;0.55;82.46
49709;BME280;35601;55.902;13.606;2023-01-05T11:57:51;100119.81;;;0.58;82.61
49709;BME280;35601;55.902;13.606;2023-01-05T12:00:21;100129.56;;;0.37;82.83
49709;BME280;35601;55.902;13.606;2023-01-05T12:05:17;100155.13;;;0.44;82.41
49709;BME280;35601;55.902;13.606;2023-01-05T12:07:32;100167.43;;;0.51;82.39
49709;BME280;35601;55.902;13.606;2023-01-05T12:10:04;100170.57;;;0.55;82.22
49709;BME280;35601;55.902;13.606;2023-01-05T12:12:33;100174.30;;;0.60;82.26
49709;BME280;35601;55.902;13.606;2023-01-05T12:14:58;100183.25;;;0.55;82.21
49709;BME280;35601;55.902;13.606;2023-01-05T12:17:13;100189.60;;;0.61;82.48
49709;BME280;35601;55.902;13.606;2023-01-05T12:19:51;100199.97;;;0.44;81.64
49709;BME280;35601;55.902;13.606;2023-01-05T12:24:41;100203.42;;;0.17;81.99
49709;BME280;35601;55.902;13.606;2023-01-05T12:27:02;100203.51;;;0.36;81.45
49709;BME280;35601;55.902;13.606;2023-01-05T12:31:57;100215.35;;;0.34;81.71
49709;BME280;35601;55.902;13.606;2023-01-05T12:34:20;100222.38;;;0.51;81.94
49709;BME280;35601;55.902;13.606;2023-01-05T12:36:45;100224.10;;;0.66;81.47
49709;BME280;35601;55.902;13.606;2023-01-05T12:39:26;100232.92;;;0.57;81.65
49709;BME280;35601;55.902;13.606;2023-01-05T12:41:37;100239.55;;;0.26;81.33
49709;BME280;35601;55.902;13.606;2023-01-05T12:44:02;100247.73;;;0.45;82.71
49709;BME280;35601;55.902;13.606;2023-01-05T12:46:25;100253.00;;;0.44;82.07
49709;BME280;35601;55.902;13.606;2023-01-05T12:48:44;100253.04;;;0.33;81.69
49709;BME280;35601;55.902;13.606;2023-01-05T12:51:11;100259.50;;;0.19;81.69
49709;BME280;35601;55.902;13.606;2023-01-05T12:53:39;100269.57;;;0.21;81.63
49709;BME280;35601;55.902;13.606;2023-01-05T12:56:02;100280.51;;;0.47;81.76
49709;BME280;35601;55.902;13.606;2023-01-05T12:58:27;100291.62;;;0.24;81.20